CNJ4 weather

Orillia Airport
Orillia, Ontario, Canada

Public forecast

Using degrees Celsius for public forecast. Weather courtesy of forecast.io.

Closest aviation weather report (METAR) to Orillia Airport

Closest report is Muskoka Airport, 17.8 nm (33.0 km) N. Retrieved 2019/10/21 14:00 UTC (30 minutes ago):

CYQA 211400Z AUTO 10007KT 9SM CLR 11/07 A3007 RMK PRESFR SLP193

Closest aviation forecast (TAF) to Orillia Airport

Closest forecast is Muskoka Airport, 17.8 nm (33.0 km) N. Retrieved 2019/10/21 14:42 UTC (0 seconds ago):

TAF TAF CYQA 211339Z 2114/2202 VRB03KT P6SM SKC FM212000 11012G22KT P6SM OVC150 RMK FCST BASED ON AUTO OBS NXT FCST BY 212000Z